Latest Weather Observations for Terrey Hills

IDN60801

Issued at 7:03 pm EST Saturday 30 July 2016 (issued every 30 minutes, with the page automatically refreshed every 10 minutes)

About weather observations | Map of weather stations | Latest weather observations for NSW | Other Formats
Station Details ID: 066059 Name: TERREY HILLS AWS Lat: -33.69 Lon: 151.23 Height: 199.0 m
Data from the previous 72 hours. | See also: Recent months at Terrey Hills
Date/Time
EST
Temp
°C
App
Temp
°C
Dew
Point
°C
Rel
Hum
%
Delta-T
°C
Wind Press
QNH
hPa
Press
MSL
hPa
Rain since
9am
mm
Dir  Spd
km/h
Gust
km/h
Spd
kts
Gust
kts
30/07:00pm 11.3 11.5 10.4 94 0.5 CALM 0 0 0 0 - - 0.0
30/06:30pm 11.2 10.9 10.1 93 0.6 NE 2 7 1 4 - - 0.0
30/06:00pm 12.0 11.0 10.4 90 0.8 ENE 6 9 3 5 - - 0.0
30/05:30pm 12.5 11.5 10.2 86 1.2 ENE 6 6 3 3 - - 0.0
30/05:00pm 13.4 12.7 10.2 81 1.7 E 4 6 2 3 - - 0.0
30/04:30pm 14.5 13.2 10.1 75 2.3 E 7 9 4 5 - - 0.0
30/04:00pm 15.3 14.1 9.7 69 2.9 E 6 7 3 4 - - 0.0
30/03:30pm 15.7 14.5 9.6 67 3.2 E 6 7 3 4 - - 0.0
30/03:00pm 15.4 14.0 8.9 65 3.4 E 6 9 3 5 - - 0.0
30/02:30pm 16.4 15.7 8.6 60 4.0 SSE 2 6 1 3 - - 0.0
30/02:00pm 15.4 13.7 7.4 59 4.0 SE 6 9 3 5 - - 0.0
30/01:30pm 15.3 13.5 7.8 61 3.8 S 7 13 4 7 - - 0.0
30/01:00pm 15.8 14.6 8.1 60 3.9 SSW 4 7 2 4 - - 0.0
30/12:30pm 14.8 12.9 7.4 61 3.7 SSW 7 13 4 7 - - 0.0
30/12:00pm 14.9 12.6 7.5 61 3.7 WSW 9 13 5 7 - - 0.0
30/11:30am 14.4 12.6 7.2 62 3.6 W 6 9 3 5 - - 0.0
30/11:00am 14.8 12.7 6.6 58 4.0 W 7 15 4 8 - - 0.0
30/10:30am 13.8 11.5 7.3 65 3.2 W 9 13 5 7 - - 0.0
30/10:00am 12.8 10.4 7.0 68 2.8 W 9 15 5 8 - - 0.0
30/09:30am 11.4 8.5 6.5 72 2.3 W 11 19 6 10 - - 0.0
30/09:00am 9.8 6.7 5.6 75 1.9 W 11 17 6 9 - - 0.0
30/08:30am 8.7 5.1 5.1 78 1.6 W 13 19 7 10 - - 0.0
30/08:00am 7.5 3.5 5.0 84 1.1 W 15 20 8 11 - - 0.0
30/07:30am 6.6 2.2 4.6 87 0.9 W 17 20 9 11 - - 0.0
30/07:00am 6.0 1.9 4.5 90 0.7 W 15 20 8 11 - - 0.0
30/06:30am 6.4 2.3 4.4 87 0.9 WNW 15 19 8 10 - - 0.0
30/06:00am 6.8 2.7 4.5 85 1.0 W 15 19 8 10 - - 0.0
30/05:30am 6.8 2.7 4.6 86 1.0 WNW 15 20 8 11 - - 0.0
30/05:00am 6.6 2.9 4.4 86 1.0 W 13 19 7 10 - - 0.0
30/04:30am 7.2 3.5 4.2 81 1.3 W 13 17 7 9 - - 0.0
30/04:00am 7.2 3.5 4.2 81 1.3 W 13 17 7 9 - - 0.0
30/03:30am 8.0 4.2 4.0 76 1.8 W 13 20 7 11 - - 0.0
30/03:00am 7.8 4.0 4.0 77 1.7 W 13 22 7 12 - - 0.0
30/02:30am 7.8 3.7 4.2 78 1.6 W 15 22 8 12 - - 0.0
30/02:00am 7.9 4.1 4.1 77 1.7 W 13 19 7 10 - - 0.0
30/01:30am 8.7 4.1 3.7 71 2.2 WSW 17 24 9 13 - - 0.0
30/01:00am 8.6 4.4 4.0 73 2.0 WSW 15 22 8 12 - - 0.0
30/12:30am 8.4 4.7 4.2 75 1.9 W 13 20 7 11 - - 0.0
30/12:00am 9.0 4.5 4.0 71 2.2 WSW 17 24 9 13 - - 0.0
 
Date/Time
EST
Temp
°C
App
Temp
°C
Dew
Point
°C
Rel
Hum
%
Delta-T
°C
Wind Press
QNH
hPa
Press
MSL
hPa
Rain since
9am
mm
Dir  Spd
km/h
Gust
km/h
Spd
kts
Gust
kts
29/11:30pm 8.9 4.8 4.1 72 2.1 WSW 15 24 8 13 - - 0.0
29/11:00pm 8.9 4.7 3.7 70 2.3 W 15 24 8 13 - - 0.0
29/10:30pm 8.9 5.1 3.7 70 2.3 W 13 20 7 11 - - 0.0
29/10:00pm 9.3 5.0 3.3 66 2.6 W 15 22 8 12 - - 0.0
29/09:30pm 9.2 5.6 3.0 65 2.7 W 11 19 6 10 - - 0.0
29/09:00pm 9.6 6.3 2.7 62 3.0 WSW 9 15 5 8 - - 0.0
29/08:30pm 10.2 6.6 2.8 60 3.2 WSW 11 17 6 9 - - 0.0
29/08:00pm 10.2 7.5 2.8 60 3.2 W 6 9 3 5 - - 0.0
29/07:30pm 10.9 8.0 2.7 57 3.6 WSW 7 19 4 10 - - 0.0
29/07:00pm 11.2 8.0 3.3 58 3.5 WSW 9 17 5 9 - - 0.0
29/06:30pm 11.8 9.1 3.8 58 3.6 W 7 13 4 7 - - 0.0
29/06:00pm 12.0 8.3 4.2 59 3.6 W 13 20 7 11 - - 0.0
29/05:30pm 12.3 9.7 4.3 58 3.7 W 7 11 4 6 - - 0.0
29/05:00pm 13.4 10.9 3.5 51 4.5 WNW 6 9 3 5 - - 0.0
29/04:30pm 15.3 12.7 3.1 44 5.6 WNW 6 11 3 6 - - 0.0
29/04:00pm 15.9 12.6 2.3 40 6.1 W 9 19 5 10 - - 0.0
29/03:30pm 16.2 12.7 1.1 36 6.7 W 9 17 5 9 - - 0.0
29/03:00pm - - - - - WNW 7 13 4 7 - - 0.0
29/02:30pm - - - - - WNW 7 15 4 8 - - 0.0
29/02:00pm - - - - - WNW 7 13 4 7 - - 0.0
29/01:30pm 16.0 13.1 2.4 40 6.2 W 7 11 4 6 - - 0.0
29/01:00pm - - - - - NW 6 11 3 6 - - 0.0
29/12:30pm - - - - - W 7 11 4 6 - - 0.0
29/12:00pm - - - - - WNW 6 9 3 5 - - 0.0
29/11:30am 14.3 12.2 4.0 50 4.8 WNW 4 7 2 4 - - 0.0
29/11:00am 12.9 10.2 3.6 53 4.2 WNW 7 13 4 7 - - 0.0
29/10:30am 12.2 10.1 5.8 65 3.0 WNW 6 9 3 5 - - 0.0
29/10:00am 10.4 7.5 4.8 68 2.6 WNW 9 13 5 7 - - 0.0
29/09:30am 9.2 5.9 4.6 73 2.1 WNW 11 19 6 10 - - 0.0
29/09:00am 7.9 4.5 4.1 77 1.7 WNW 11 17 6 9 - - -
29/08:30am 6.8 3.7 3.8 81 1.3 WNW 9 15 5 8 - - -
29/08:00am 5.3 1.8 3.3 87 0.8 WNW 11 15 6 8 - - -
29/07:30am 3.9 -0.1 2.9 93 0.4 W 13 17 7 9 - - -
29/07:00am 3.2 -0.8 2.8 97 0.2 W 13 17 7 9 - - -
29/06:30am 3.5 -0.5 2.8 95 0.3 WNW 13 17 7 9 - - -
29/06:00am 4.3 0.7 3.0 91 0.5 WNW 11 15 6 8 - - -
29/05:30am 4.4 0.4 3.1 91 0.5 WNW 13 17 7 9 - - -
29/05:00am 4.7 0.4 3.0 89 0.7 W 15 20 8 11 - - -
29/04:30am 5.3 1.0 3.3 87 0.8 W 15 19 8 10 - - -
29/04:00am 5.1 1.2 3.3 88 0.8 W 13 17 7 9 - - -
29/03:30am 5.1 0.8 3.3 88 0.8 W 15 20 8 11 - - -
29/03:00am 5.2 0.9 3.2 87 0.8 W 15 19 8 10 - - 0.0
29/02:30am 5.5 1.2 3.2 85 1.0 W 15 20 8 11 - - -
29/02:00am 6.0 1.7 3.5 84 1.1 W 15 20 8 11 - - -
29/01:30am 6.7 2.4 3.1 78 1.5 W 15 19 8 10 - - -
29/01:00am 7.3 3.3 3.0 74 1.8 W 13 20 7 11 - - -
29/12:30am 7.7 4.1 2.8 71 2.1 W 11 17 6 9 - - -
29/12:00am 8.5 3.6 2.3 65 2.6 WSW 17 24 9 13 - - -
 
Date/Time
EST
Temp
°C
App
Temp
°C
Dew
Point
°C
Rel
Hum
%
Delta-T
°C
Wind Press
QNH
hPa
Press
MSL
hPa
Rain since
9am
mm
Dir  Spd
km/h
Gust
km/h
Spd
kts
Gust
kts
28/11:30pm 8.3 5.0 2.5 67 2.5 W 9 17 5 9 - - -
28/11:00pm 8.3 5.4 2.5 67 2.5 W 7 11 4 6 - - -
28/10:30pm 9.1 5.0 2.2 62 2.9 WSW 13 19 7 10 - - -
28/10:00pm 9.5 4.6 2.1 60 3.1 SW 17 24 9 13 - - -
28/09:30pm 9.2 5.5 2.3 62 2.9 WSW 11 19 6 10 - - -
28/09:00pm 9.8 6.5 2.4 60 3.2 WSW 9 15 5 8 - - 0.0
28/08:30pm 10.2 6.9 2.6 59 3.3 WSW 9 17 5 9 - - -
28/08:00pm 10.5 6.8 2.6 58 3.4 WSW 11 19 6 10 - - -
28/07:30pm 11.3 7.6 2.6 55 3.8 WSW 11 19 6 10 - - -
28/07:00pm 11.7 8.1 3.2 56 3.8 WSW 11 19 6 10 - - -
28/06:30pm 12.7 9.3 3.9 55 4.0 WSW 11 19 6 10 - - -
28/06:00pm 13.7 12.1 4.6 54 4.2 WSW 2 24 1 13 - - -
28/05:30pm 13.9 12.7 4.8 54 4.3 CALM 0 2 0 1 - - -
28/05:00pm 14.6 12.7 4.9 52 4.6 NNW 4 7 2 4 - - -
28/04:30pm 16.2 14.1 3.9 44 5.8 NNW 4 9 2 5 - - -
28/04:00pm 17.2 14.7 3.5 40 6.4 WNW 6 11 3 6 - - -
28/03:30pm 16.9 14.0 2.5 38 6.6 WNW 7 13 4 7 - - -
28/03:00pm 17.5 14.8 2.7 37 6.8 WNW 6 11 3 6 - - -
28/02:30pm 16.9 14.2 2.9 39 6.5 W 6 13 3 7 - - -
28/02:00pm 16.7 13.9 2.3 38 6.6 WNW 6 11 3 6 - - -
28/01:30pm 15.9 12.6 2.3 40 6.1 WNW 9 17 5 9 - - -
28/01:00pm 15.8 13.1 3.6 44 5.7 WNW 7 15 4 8 - - -
28/12:30pm 15.3 12.6 3.8 46 5.3 W 7 17 4 9 - - -
28/12:00pm 14.5 11.3 3.3 47 5.1 W 9 13 5 7 - - -
28/11:30am - - - - - - - - - - - - -

Other Formats:

Comma delimited format used in spreadsheet applications
http://www.bom.gov.au/fwo/IDN60801/IDN60801.94759.axf

JavaScript Object Notation format (JSON) in row-major order
http://www.bom.gov.au/fwo/IDN60801/IDN60801.94759.json